Main page
METAR-TAF:

METAR-TAF

Airports :

Reims – Prunay Aerodrome

Reims, France

latitude: 49-12-31N, longitude: 004-09-24E, elevation: 95 m

Current weather observation

The report was made 12 minutes ago, at 09:30 UTC
Wind 2 kt from variable directions
Temperature 16°C
Humidity 77%
Pressure 1006 hPa
Visibility 10 km or more
Few clouds at a height of 1400 ft
Broken clouds at a height of 4700 ft
Overcast at a height of 7600 ft

METAR: LFQA 190930Z AUTO VRB02KT 9999 // FEW014 BKN047 OVC076 16/12 Q1006

Time: 11:42 (09:42 UTC)


TAF: missing

Weather observations and forecasts of more than 4000 airports (METAR and TAF reports).

The available stations are represented by yellow and red dots on the map.

Hover mouse over dot to see the name of the station.

Then click to see weather observations and forecasts.

To change the map : click on the green buttons with a black cross to zoom in, on the green button with a dash to zoom out, or on the green arrows for adjacent maps.


METAR-TAF: